Terminal Aerodrome Forecast
Issued by NWS

Home | Current Version | Previous Version | Text Only | Print | Product List | Glossary On
Versions: 1 2 3 4 5 6 7 8 9 10 11 12 13 14 15 16 17 18 19 20 21 22 23 24 25
689
FTUS45 KTFX 210128 AAA
TAFCTB
TAF AMD
KCTB 210128Z 2101/2124 04010KT P6SM VCSH SCT015 OVC025
      TEMPO 2101/2105 3SM -SN BR OVC015
     FM210500 01008KT 6SM BR VCSH BKN015 OVC090
     FM211000 VRB05KT P6SM BKN035 BKN120
     FM211500 21009KT P6SM SCT050 BKN150
     FM211900 22016KT P6SM SCT070 BKN100=

USA.gov is the U.S. government's official web portal to all federal, state and local government web resources and services.